sensor_id;sensor_type;location;lat;lon;timestamp;P1;durP1;ratioP1;P2;durP2;ratioP2
14104;SDS011;7130;52.484;4.766;2022-08-01T00:01:35;3.70;;;3.40;;
14104;SDS011;7130;52.484;4.766;2022-08-01T00:04:02;4.10;;;3.70;;
14104;SDS011;7130;52.484;4.766;2022-08-01T00:06:30;4.40;;;3.30;;
14104;SDS011;7130;52.484;4.766;2022-08-01T00:08:57;4.55;;;3.90;;
14104;SDS011;7130;52.484;4.766;2022-08-01T00:11:24;4.53;;;3.90;;
14104;SDS011;7130;52.484;4.766;2022-08-01T00:13:52;5.23;;;4.30;;
14104;SDS011;7130;52.484;4.766;2022-08-01T00:16:20;5.32;;;4.05;;
14104;SDS011;7130;52.484;4.766;2022-08-01T00:18:48;4.18;;;3.80;;
14104;SDS011;7130;52.484;4.766;2022-08-01T00:21:15;4.65;;;3.63;;
14104;SDS011;7130;52.484;4.766;2022-08-01T00:23:42;4.37;;;3.63;;
14104;SDS011;7130;52.484;4.766;2022-08-01T00:26:10;3.80;;;3.45;;
14104;SDS011;7130;52.484;4.766;2022-08-01T00:28:37;5.17;;;3.80;;
14104;SDS011;7130;52.484;4.766;2022-08-01T00:31:05;4.93;;;3.50;;
14104;SDS011;7130;52.484;4.766;2022-08-01T00:33:33;4.85;;;4.07;;
14104;SDS011;7130;52.484;4.766;2022-08-01T00:36:00;4.63;;;4.03;;
14104;SDS011;7130;52.484;4.766;2022-08-01T00:38:27;4.30;;;3.90;;
14104;SDS011;7130;52.484;4.766;2022-08-01T00:40:54;4.82;;;4.25;;
14104;SDS011;7130;52.484;4.766;2022-08-01T00:43:21;4.80;;;4.00;;
14104;SDS011;7130;52.484;4.766;2022-08-01T00:45:48;5.40;;;4.30;;
14104;SDS011;7130;52.484;4.766;2022-08-01T00:48:17;6.57;;;4.10;;
14104;SDS011;7130;52.484;4.766;2022-08-01T00:50:44;4.68;;;4.20;;
14104;SDS011;7130;52.484;4.766;2022-08-01T00:53:12;5.05;;;4.47;;
14104;SDS011;7130;52.484;4.766;2022-08-01T00:55:39;5.65;;;4.60;;
14104;SDS011;7130;52.484;4.766;2022-08-01T00:58:06;5.68;;;4.70;;
14104;SDS011;7130;52.484;4.766;2022-08-01T01:00:34;5.63;;;4.40;;
14104;SDS011;7130;52.484;4.766;2022-08-01T01:03:01;5.53;;;4.60;;
14104;SDS011;7130;52.484;4.766;2022-08-01T01:05:31;6.38;;;4.93;;
14104;SDS011;7130;52.484;4.766;2022-08-01T01:07:59;6.57;;;4.75;;
14104;SDS011;7130;52.484;4.766;2022-08-01T01:10:30;6.55;;;5.13;;
14104;SDS011;7130;52.484;4.766;2022-08-01T01:12:59;5.95;;;5.22;;
14104;SDS011;7130;52.484;4.766;2022-08-01T01:15:29;6.32;;;5.70;;
14104;SDS011;7130;52.484;4.766;2022-08-01T01:18:02;6.80;;;6.10;;
14104;SDS011;7130;52.484;4.766;2022-08-01T01:20:32;8.35;;;6.40;;
14104;SDS011;7130;52.484;4.766;2022-08-01T01:23:19;7.15;;;6.45;;
14104;SDS011;7130;52.484;4.766;2022-08-01T01:25:54;7.00;;;6.32;;
14104;SDS011;7130;52.484;4.766;2022-08-01T01:28:27;5.97;;;5.47;;
14104;SDS011;7130;52.484;4.766;2022-08-01T01:30:57;7.07;;;6.32;;
14104;SDS011;7130;52.484;4.766;2022-08-01T01:33:25;6.80;;;6.10;;
14104;SDS011;7130;52.484;4.766;2022-08-01T01:35:57;6.93;;;6.30;;
14104;SDS011;7130;52.484;4.766;2022-08-01T01:38:26;7.55;;;6.45;;
14104;SDS011;7130;52.484;4.766;2022-08-01T01:40:54;6.63;;;5.10;;
14104;SDS011;7130;52.484;4.766;2022-08-01T01:43:22;5.00;;;4.50;;
14104;SDS011;7130;52.484;4.766;2022-08-01T01:45:50;5.25;;;4.75;;
14104;SDS011;7130;52.484;4.766;2022-08-01T01:48:20;4.05;;;3.40;;
14104;SDS011;7130;52.484;4.766;2022-08-01T01:50:48;3.80;;;3.30;;
14104;SDS011;7130;52.484;4.766;2022-08-01T01:53:17;3.47;;;3.17;;
14104;SDS011;7130;52.484;4.766;2022-08-01T01:55:46;3.10;;;2.80;;
14104;SDS011;7130;52.484;4.766;2022-08-01T01:58:13;2.75;;;2.55;;
14104;SDS011;7130;52.484;4.766;2022-08-01T02:00:41;2.50;;;2.30;;
14104;SDS011;7130;52.484;4.766;2022-08-01T02:03:09;3.70;;;2.30;;
14104;SDS011;7130;52.484;4.766;2022-08-01T02:05:38;2.50;;;2.30;;
14104;SDS011;7130;52.484;4.766;2022-08-01T02:08:07;2.90;;;2.47;;
14104;SDS011;7130;52.484;4.766;2022-08-01T02:10:34;2.80;;;2.60;;
14104;SDS011;7130;52.484;4.766;2022-08-01T02:13:02;2.53;;;2.20;;
14104;SDS011;7130;52.484;4.766;2022-08-01T02:15:31;3.60;;;2.53;;
14104;SDS011;7130;52.484;4.766;2022-08-01T02:17:59;3.90;;;2.63;;
14104;SDS011;7130;52.484;4.766;2022-08-01T02:20:28;3.42;;;2.47;;
14104;SDS011;7130;52.484;4.766;2022-08-01T02:22:58;3.53;;;2.60;;
14104;SDS011;7130;52.484;4.766;2022-08-01T02:25:29;3.17;;;2.75;;
14104;SDS011;7130;52.484;4.766;2022-08-01T02:28:01;8.00;;;3.50;;
14104;SDS011;7130;52.484;4.766;2022-08-01T02:30:30;3.67;;;2.83;;
14104;SDS011;7130;52.484;4.766;2022-08-01T02:32:59;3.78;;;2.58;;
14104;SDS011;7130;52.484;4.766;2022-08-01T02:35:29;3.22;;;2.05;;
14104;SDS011;7130;52.484;4.766;2022-08-01T02:37:58;3.17;;;2.08;;
14104;SDS011;7130;52.484;4.766;2022-08-01T02:40:27;5.90;;;2.45;;
14104;SDS011;7130;52.484;4.766;2022-08-01T02:42:55;2.53;;;1.98;;
14104;SDS011;7130;52.484;4.766;2022-08-01T02:45:25;2.07;;;1.67;;
14104;SDS011;7130;52.484;4.766;2022-08-01T02:47:53;2.10;;;1.67;;
14104;SDS011;7130;52.484;4.766;2022-08-01T02:50:22;3.50;;;1.67;;
14104;SDS011;7130;52.484;4.766;2022-08-01T02:52:51;1.90;;;1.70;;
14104;SDS011;7130;52.484;4.766;2022-08-01T02:55:20;7.35;;;2.22;;
14104;SDS011;7130;52.484;4.766;2022-08-01T02:57:48;3.35;;;1.98;;
14104;SDS011;7130;52.484;4.766;2022-08-01T03:00:16;2.25;;;1.77;;
14104;SDS011;7130;52.484;4.766;2022-08-01T03:02:44;3.40;;;2.08;;
14104;SDS011;7130;52.484;4.766;2022-08-01T03:05:13;2.10;;;1.90;;
14104;SDS011;7130;52.484;4.766;2022-08-01T03:07:42;2.67;;;2.20;;
14104;SDS011;7130;52.484;4.766;2022-08-01T03:10:09;6.25;;;2.40;;
14104;SDS011;7130;52.484;4.766;2022-08-01T03:12:38;2.00;;;1.90;;
14104;SDS011;7130;52.484;4.766;2022-08-01T03:15:06;2.60;;;2.25;;
14104;SDS011;7130;52.484;4.766;2022-08-01T03:17:34;2.97;;;2.47;;
14104;SDS011;7130;52.484;4.766;2022-08-01T03:20:02;2.20;;;2.00;;
14104;SDS011;7130;52.484;4.766;2022-08-01T03:22:30;2.40;;;2.20;;
14104;SDS011;7130;52.484;4.766;2022-08-01T03:24:59;2.60;;;2.10;;
14104;SDS011;7130;52.484;4.766;2022-08-01T03:27:27;3.40;;;2.30;;
14104;SDS011;7130;52.484;4.766;2022-08-01T03:29:56;2.58;;;2.38;;
14104;SDS011;7130;52.484;4.766;2022-08-01T03:32:24;2.60;;;2.40;;
14104;SDS011;7130;52.484;4.766;2022-08-01T03:34:53;2.65;;;2.45;;
14104;SDS011;7130;52.484;4.766;2022-08-01T03:37:21;3.40;;;2.72;;
14104;SDS011;7130;52.484;4.766;2022-08-01T03:39:52;3.33;;;3.03;;
14104;SDS011;7130;52.484;4.766;2022-08-01T03:42:29;4.00;;;3.25;;
14104;SDS011;7130;52.484;4.766;2022-08-01T03:45:00;4.72;;;3.20;;
14104;SDS011;7130;52.484;4.766;2022-08-01T03:47:29;5.35;;;3.65;;
14104;SDS011;7130;52.484;4.766;2022-08-01T03:49:58;5.93;;;4.13;;
14104;SDS011;7130;52.484;4.766;2022-08-01T03:52:27;8.73;;;4.50;;
14104;SDS011;7130;52.484;4.766;2022-08-01T03:54:56;8.25;;;5.28;;
14104;SDS011;7130;52.484;4.766;2022-08-01T03:57:24;9.88;;;5.45;;
14104;SDS011;7130;52.484;4.766;2022-08-01T03:59:54;10.60;;;5.55;;
14104;SDS011;7130;52.484;4.766;2022-08-01T04:02:23;9.13;;;6.00;;
14104;SDS011;7130;52.484;4.766;2022-08-01T04:04:50;9.80;;;5.78;;
14104;SDS011;7130;52.484;4.766;2022-08-01T04:07:21;13.77;;;6.72;;
14104;SDS011;7130;52.484;4.766;2022-08-01T04:09:48;10.15;;;6.30;;
14104;SDS011;7130;52.484;4.766;2022-08-01T04:12:15;11.07;;;6.50;;
14104;SDS011;7130;52.484;4.766;2022-08-01T04:14:42;11.90;;;6.72;;
14104;SDS011;7130;52.484;4.766;2022-08-01T04:17:09;13.70;;;7.22;;
14104;SDS011;7130;52.484;4.766;2022-08-01T04:19:37;13.32;;;7.10;;
14104;SDS011;7130;52.484;4.766;2022-08-01T04:22:04;13.18;;;7.28;;
14104;SDS011;7130;52.484;4.766;2022-08-01T04:24:32;14.00;;;7.70;;
14104;SDS011;7130;52.484;4.766;2022-08-01T04:27:00;14.98;;;6.97;;
14104;SDS011;7130;52.484;4.766;2022-08-01T04:29:28;17.58;;;7.25;;
14104;SDS011;7130;52.484;4.766;2022-08-01T04:31:56;16.48;;;7.50;;
14104;SDS011;7130;52.484;4.766;2022-08-01T04:34:26;17.48;;;7.63;;
14104;SDS011;7130;52.484;4.766;2022-08-01T04:36:55;17.05;;;7.28;;
14104;SDS011;7130;52.484;4.766;2022-08-01T04:39:23;15.30;;;7.03;;
14104;SDS011;7130;52.484;4.766;2022-08-01T04:41:52;13.60;;;6.90;;
14104;SDS011;7130;52.484;4.766;2022-08-01T04:44:21;16.77;;;6.72;;
14104;SDS011;7130;52.484;4.766;2022-08-01T04:46:48;16.40;;;7.15;;
14104;SDS011;7130;52.484;4.766;2022-08-01T04:49:19;15.77;;;6.32;;
14104;SDS011;7130;52.484;4.766;2022-08-01T04:51:49;16.85;;;6.30;;
14104;SDS011;7130;52.484;4.766;2022-08-01T04:54:18;18.73;;;6.93;;
14104;SDS011;7130;52.484;4.766;2022-08-01T04:56:46;16.08;;;6.35;;
14104;SDS011;7130;52.484;4.766;2022-08-01T04:59:13;18.60;;;6.97;;
14104;SDS011;7130;52.484;4.766;2022-08-01T05:01:54;15.32;;;6.03;;
14104;SDS011;7130;52.484;4.766;2022-08-01T05:04:21;18.42;;;6.90;;
14104;SDS011;7130;52.484;4.766;2022-08-01T05:06:48;18.73;;;6.78;;
14104;SDS011;7130;52.484;4.766;2022-08-01T05:09:15;16.70;;;6.13;;
14104;SDS011;7130;52.484;4.766;2022-08-01T05:11:44;17.63;;;6.38;;
14104;SDS011;7130;52.484;4.766;2022-08-01T05:14:11;15.55;;;5.68;;
14104;SDS011;7130;52.484;4.766;2022-08-01T05:16:38;17.08;;;6.00;;
14104;SDS011;7130;52.484;4.766;2022-08-01T05:19:06;19.27;;;6.43;;
14104;SDS011;7130;52.484;4.766;2022-08-01T05:21:33;18.88;;;6.07;;
14104;SDS011;7130;52.484;4.766;2022-08-01T05:24:01;16.35;;;6.18;;
14104;SDS011;7130;52.484;4.766;2022-08-01T05:26:28;16.60;;;6.10;;
14104;SDS011;7130;52.484;4.766;2022-08-01T05:28:56;16.00;;;6.10;;
14104;SDS011;7130;52.484;4.766;2022-08-01T05:31:23;14.35;;;6.05;;
14104;SDS011;7130;52.484;4.766;2022-08-01T05:33:50;15.27;;;6.30;;
14104;SDS011;7130;52.484;4.766;2022-08-01T05:36:17;20.75;;;6.35;;
14104;SDS011;7130;52.484;4.766;2022-08-01T05:38:44;18.48;;;6.32;;
14104;SDS011;7130;52.484;4.766;2022-08-01T05:41:12;20.63;;;6.13;;
14104;SDS011;7130;52.484;4.766;2022-08-01T05:43:39;15.68;;;6.40;;
14104;SDS011;7130;52.484;4.766;2022-08-01T05:46:07;17.35;;;5.90;;
14104;SDS011;7130;52.484;4.766;2022-08-01T05:48:35;12.82;;;5.78;;
14104;SDS011;7130;52.484;4.766;2022-08-01T05:51:02;16.13;;;6.30;;
14104;SDS011;7130;52.484;4.766;2022-08-01T05:53:29;18.33;;;5.60;;
14104;SDS011;7130;52.484;4.766;2022-08-01T05:55:59;17.27;;;5.75;;
14104;SDS011;7130;52.484;4.766;2022-08-01T05:58:26;15.25;;;5.63;;
14104;SDS011;7130;52.484;4.766;2022-08-01T06:00:53;15.35;;;5.75;;
14104;SDS011;7130;52.484;4.766;2022-08-01T06:03:22;12.63;;;4.82;;
14104;SDS011;7130;52.484;4.766;2022-08-01T06:05:50;14.38;;;5.28;;
14104;SDS011;7130;52.484;4.766;2022-08-01T06:08:18;14.93;;;5.35;;
14104;SDS011;7130;52.484;4.766;2022-08-01T06:10:45;18.17;;;5.50;;
14104;SDS011;7130;52.484;4.766;2022-08-01T06:13:15;13.13;;;5.13;;
14104;SDS011;7130;52.484;4.766;2022-08-01T06:15:44;11.95;;;4.70;;
14104;SDS011;7130;52.484;4.766;2022-08-01T06:18:12;12.50;;;4.55;;
14104;SDS011;7130;52.484;4.766;2022-08-01T06:20:40;13.10;;;5.00;;
14104;SDS011;7130;52.484;4.766;2022-08-01T06:23:07;11.38;;;4.70;;
14104;SDS011;7130;52.484;4.766;2022-08-01T06:25:34;10.65;;;4.40;;
14104;SDS011;7130;52.484;4.766;2022-08-01T06:28:02;12.40;;;4.25;;
14104;SDS011;7130;52.484;4.766;2022-08-01T06:30:29;12.68;;;4.85;;
14104;SDS011;7130;52.484;4.766;2022-08-01T06:32:56;11.93;;;4.37;;
14104;SDS011;7130;52.484;4.766;2022-08-01T06:35:25;11.75;;;4.43;;
14104;SDS011;7130;52.484;4.766;2022-08-01T06:37:54;16.83;;;5.55;;
14104;SDS011;7130;52.484;4.766;2022-08-01T06:40:22;9.98;;;4.30;;
14104;SDS011;7130;52.484;4.766;2022-08-01T06:42:49;12.73;;;4.85;;
14104;SDS011;7130;52.484;4.766;2022-08-01T06:45:16;12.77;;;5.00;;
14104;SDS011;7130;52.484;4.766;2022-08-01T06:47:47;15.02;;;4.95;;
14104;SDS011;7130;52.484;4.766;2022-08-01T06:50:14;14.13;;;4.93;;
14104;SDS011;7130;52.484;4.766;2022-08-01T06:52:41;15.43;;;5.07;;
14104;SDS011;7130;52.484;4.766;2022-08-01T06:55:10;14.02;;;4.57;;
14104;SDS011;7130;52.484;4.766;2022-08-01T06:57:44;13.38;;;5.03;;
14104;SDS011;7130;52.484;4.766;2022-08-01T07:00:11;15.25;;;4.80;;
14104;SDS011;7130;52.484;4.766;2022-08-01T07:02:39;13.93;;;4.60;;
14104;SDS011;7130;52.484;4.766;2022-08-01T07:05:06;11.38;;;4.32;;
14104;SDS011;7130;52.484;4.766;2022-08-01T07:07:34;16.02;;;4.55;;
14104;SDS011;7130;52.484;4.766;2022-08-01T07:10:01;14.40;;;4.80;;
14104;SDS011;7130;52.484;4.766;2022-08-01T07:12:29;14.95;;;5.10;;
14104;SDS011;7130;52.484;4.766;2022-08-01T07:14:57;14.68;;;4.80;;
14104;SDS011;7130;52.484;4.766;2022-08-01T07:17:24;15.17;;;5.20;;
14104;SDS011;7130;52.484;4.766;2022-08-01T07:19:51;14.82;;;4.75;;
14104;SDS011;7130;52.484;4.766;2022-08-01T07:22:19;11.43;;;4.03;;
14104;SDS011;7130;52.484;4.766;2022-08-01T07:24:46;12.02;;;4.88;;
14104;SDS011;7130;52.484;4.766;2022-08-01T07:27:13;12.68;;;4.22;;
14104;SDS011;7130;52.484;4.766;2022-08-01T07:29:42;11.25;;;4.55;;
14104;SDS011;7130;52.484;4.766;2022-08-01T07:32:09;14.10;;;5.57;;
14104;SDS011;7130;52.484;4.766;2022-08-01T07:34:36;10.77;;;4.43;;
14104;SDS011;7130;52.484;4.766;2022-08-01T07:37:03;12.35;;;4.25;;
14104;SDS011;7130;52.484;4.766;2022-08-01T07:39:30;14.05;;;4.70;;
14104;SDS011;7130;52.484;4.766;2022-08-01T07:41:57;14.45;;;4.78;;
14104;SDS011;7130;52.484;4.766;2022-08-01T07:44:24;10.40;;;4.20;;
14104;SDS011;7130;52.484;4.766;2022-08-01T07:46:53;13.93;;;4.40;;
14104;SDS011;7130;52.484;4.766;2022-08-01T07:49:20;12.77;;;4.53;;
14104;SDS011;7130;52.484;4.766;2022-08-01T07:51:47;9.77;;;3.55;;
14104;SDS011;7130;52.484;4.766;2022-08-01T07:54:14;11.80;;;4.20;;
14104;SDS011;7130;52.484;4.766;2022-08-01T07:56:41;13.00;;;4.40;;
14104;SDS011;7130;52.484;4.766;2022-08-01T07:59:08;12.70;;;4.45;;
14104;SDS011;7130;52.484;4.766;2022-08-01T08:01:35;11.88;;;3.97;;
14104;SDS011;7130;52.484;4.766;2022-08-01T08:04:04;12.55;;;4.28;;
14104;SDS011;7130;52.484;4.766;2022-08-01T08:06:31;10.95;;;4.22;;
14104;SDS011;7130;52.484;4.766;2022-08-01T08:08:58;12.50;;;3.85;;
14104;SDS011;7130;52.484;4.766;2022-08-01T08:11:25;10.23;;;3.75;;
14104;SDS011;7130;52.484;4.766;2022-08-01T08:13:52;11.93;;;3.67;;
14104;SDS011;7130;52.484;4.766;2022-08-01T08:16:19;8.80;;;3.47;;
14104;SDS011;7130;52.484;4.766;2022-08-01T08:18:46;9.88;;;3.60;;
14104;SDS011;7130;52.484;4.766;2022-08-01T08:21:15;12.57;;;3.83;;
14104;SDS011;7130;52.484;4.766;2022-08-01T08:23:42;10.68;;;3.65;;
14104;SDS011;7130;52.484;4.766;2022-08-01T08:26:27;8.82;;;3.30;;
14104;SDS011;7130;52.484;4.766;2022-08-01T08:28:54;9.77;;;3.60;;
14104;SDS011;7130;52.484;4.766;2022-08-01T08:31:21;7.43;;;3.53;;
14104;SDS011;7130;52.484;4.766;2022-08-01T08:33:48;9.65;;;3.70;;
14104;SDS011;7130;52.484;4.766;2022-08-01T08:36:16;11.15;;;3.70;;
14104;SDS011;7130;52.484;4.766;2022-08-01T08:38:43;7.93;;;3.28;;
14104;SDS011;7130;52.484;4.766;2022-08-01T08:41:10;8.35;;;3.30;;
14104;SDS011;7130;52.484;4.766;2022-08-01T08:43:38;9.63;;;3.50;;
14104;SDS011;7130;52.484;4.766;2022-08-01T08:46:05;10.50;;;3.45;;
14104;SDS011;7130;52.484;4.766;2022-08-01T08:48:34;8.07;;;3.20;;
14104;SDS011;7130;52.484;4.766;2022-08-01T08:51:01;6.53;;;2.72;;
14104;SDS011;7130;52.484;4.766;2022-08-01T08:53:30;6.95;;;2.90;;
14104;SDS011;7130;52.484;4.766;2022-08-01T08:56:05;9.50;;;3.70;;
14104;SDS011;7130;52.484;4.766;2022-08-01T08:58:33;8.13;;;3.30;;
14104;SDS011;7130;52.484;4.766;2022-08-01T09:01:06;7.15;;;3.15;;
14104;SDS011;7130;52.484;4.766;2022-08-01T09:03:34;8.65;;;3.03;;
14104;SDS011;7130;52.484;4.766;2022-08-01T09:06:01;8.75;;;3.33;;
14104;SDS011;7130;52.484;4.766;2022-08-01T09:08:30;8.63;;;3.75;;
14104;SDS011;7130;52.484;4.766;2022-08-01T09:10:57;11.03;;;3.80;;
14104;SDS011;7130;52.484;4.766;2022-08-01T09:13:24;7.50;;;3.10;;
14104;SDS011;7130;52.484;4.766;2022-08-01T09:15:52;8.25;;;3.35;;
14104;SDS011;7130;52.484;4.766;2022-08-01T09:18:26;7.70;;;3.45;;
14104;SDS011;7130;52.484;4.766;2022-08-01T09:21:06;9.15;;;3.42;;
14104;SDS011;7130;52.484;4.766;2022-08-01T09:23:35;7.35;;;2.88;;
14104;SDS011;7130;52.484;4.766;2022-08-01T09:26:05;7.60;;;3.13;;
14104;SDS011;7130;52.484;4.766;2022-08-01T09:28:32;8.95;;;3.20;;
14104;SDS011;7130;52.484;4.766;2022-08-01T09:31:04;5.82;;;2.33;;
14104;SDS011;7130;52.484;4.766;2022-08-01T09:33:46;7.83;;;3.10;;
14104;SDS011;7130;52.484;4.766;2022-08-01T09:36:13;6.25;;;2.90;;
14104;SDS011;7130;52.484;4.766;2022-08-01T09:38:41;7.50;;;2.80;;
14104;SDS011;7130;52.484;4.766;2022-08-01T09:41:08;7.93;;;2.85;;
14104;SDS011;7130;52.484;4.766;2022-08-01T09:43:36;6.10;;;2.60;;
14104;SDS011;7130;52.484;4.766;2022-08-01T09:46:04;7.95;;;3.53;;
14104;SDS011;7130;52.484;4.766;2022-08-01T09:48:33;9.45;;;3.40;;
14104;SDS011;7130;52.484;4.766;2022-08-01T09:51:02;8.68;;;2.90;;
14104;SDS011;7130;52.484;4.766;2022-08-01T09:53:39;7.40;;;4.18;;
14104;SDS011;7130;52.484;4.766;2022-08-01T09:56:11;7.70;;;3.15;;
14104;SDS011;7130;52.484;4.766;2022-08-01T09:58:54;6.38;;;2.75;;
14104;SDS011;7130;52.484;4.766;2022-08-01T10:01:21;8.23;;;2.88;;
14104;SDS011;7130;52.484;4.766;2022-08-01T10:04:03;6.03;;;2.65;;
14104;SDS011;7130;52.484;4.766;2022-08-01T10:06:30;3.95;;;1.77;;
14104;SDS011;7130;52.484;4.766;2022-08-01T10:08:57;7.45;;;2.20;;
14104;SDS011;7130;52.484;4.766;2022-08-01T10:11:26;4.88;;;2.30;;
14104;SDS011;7130;52.484;4.766;2022-08-01T10:13:53;4.78;;;2.22;;
14104;SDS011;7130;52.484;4.766;2022-08-01T10:16:21;6.20;;;2.38;;
14104;SDS011;7130;52.484;4.766;2022-08-01T10:18:48;9.18;;;2.72;;
14104;SDS011;7130;52.484;4.766;2022-08-01T10:21:15;4.37;;;2.40;;
14104;SDS011;7130;52.484;4.766;2022-08-01T10:23:43;7.45;;;2.42;;
14104;SDS011;7130;52.484;4.766;2022-08-01T10:26:10;6.53;;;2.50;;
14104;SDS011;7130;52.484;4.766;2022-08-01T10:28:40;5.60;;;2.40;;
14104;SDS011;7130;52.484;4.766;2022-08-01T10:31:07;6.88;;;2.70;;
14104;SDS011;7130;52.484;4.766;2022-08-01T10:33:35;7.10;;;2.80;;
14104;SDS011;7130;52.484;4.766;2022-08-01T10:36:04;6.28;;;2.63;;
14104;SDS011;7130;52.484;4.766;2022-08-01T10:38:31;5.80;;;2.50;;
14104;SDS011;7130;52.484;4.766;2022-08-01T10:40:59;6.55;;;2.40;;
14104;SDS011;7130;52.484;4.766;2022-08-01T10:43:26;7.28;;;2.47;;
14104;SDS011;7130;52.484;4.766;2022-08-01T10:45:54;5.90;;;2.17;;
14104;SDS011;7130;52.484;4.766;2022-08-01T10:48:22;6.50;;;2.40;;
14104;SDS011;7130;52.484;4.766;2022-08-01T10:50:52;7.18;;;2.35;;
14104;SDS011;7130;52.484;4.766;2022-08-01T10:53:22;5.20;;;2.20;;
14104;SDS011;7130;52.484;4.766;2022-08-01T10:55:50;5.77;;;2.40;;
14104;SDS011;7130;52.484;4.766;2022-08-01T10:58:23;5.97;;;2.20;;
14104;SDS011;7130;52.484;4.766;2022-08-01T11:03:38;7.43;;;2.70;;
14104;SDS011;7130;52.484;4.766;2022-08-01T11:06:05;6.07;;;2.50;;
14104;SDS011;7130;52.484;4.766;2022-08-01T11:08:33;4.22;;;2.35;;
14104;SDS011;7130;52.484;4.766;2022-08-01T11:11:03;6.07;;;2.28;;
14104;SDS011;7130;52.484;4.766;2022-08-01T11:16:24;3.55;;;2.03;;
14104;SDS011;7130;52.484;4.766;2022-08-01T11:18:53;6.17;;;2.27;;
14104;SDS011;7130;52.484;4.766;2022-08-01T11:21:20;4.07;;;2.00;;
14104;SDS011;7130;52.484;4.766;2022-08-01T11:23:49;6.70;;;2.07;;
14104;SDS011;7130;52.484;4.766;2022-08-01T11:26:18;5.65;;;2.22;;
14104;SDS011;7130;52.484;4.766;2022-08-01T11:28:48;3.77;;;2.10;;
14104;SDS011;7130;52.484;4.766;2022-08-01T11:31:33;5.35;;;2.47;;
14104;SDS011;7130;52.484;4.766;2022-08-01T11:34:01;7.00;;;2.38;;
14104;SDS011;7130;52.484;4.766;2022-08-01T11:36:29;5.25;;;2.30;;
14104;SDS011;7130;52.484;4.766;2022-08-01T11:39:15;6.60;;;2.60;;
14104;SDS011;7130;52.484;4.766;2022-08-01T11:41:42;4.93;;;2.58;;
14104;SDS011;7130;52.484;4.766;2022-08-01T11:44:10;5.97;;;2.67;;
14104;SDS011;7130;52.484;4.766;2022-08-01T11:46:45;8.18;;;2.40;;
14104;SDS011;7130;52.484;4.766;2022-08-01T11:49:23;6.65;;;2.58;;
14104;SDS011;7130;52.484;4.766;2022-08-01T11:51:56;4.90;;;2.40;;
14104;SDS011;7130;52.484;4.766;2022-08-01T11:54:24;4.30;;;2.53;;
14104;SDS011;7130;52.484;4.766;2022-08-01T11:56:53;7.37;;;2.30;;
14104;SDS011;7130;52.484;4.766;2022-08-01T11:59:21;6.38;;;2.70;;
14104;SDS011;7130;52.484;4.766;2022-08-01T12:01:48;7.05;;;2.58;;
14104;SDS011;7130;52.484;4.766;2022-08-01T12:04:15;5.37;;;2.50;;
14104;SDS011;7130;52.484;4.766;2022-08-01T12:06:44;6.47;;;2.78;;
14104;SDS011;7130;52.484;4.766;2022-08-01T12:09:15;6.53;;;2.75;;
14104;SDS011;7130;52.484;4.766;2022-08-01T12:11:43;4.05;;;2.20;;
14104;SDS011;7130;52.484;4.766;2022-08-01T12:14:16;6.13;;;2.70;;
14104;SDS011;7130;52.484;4.766;2022-08-01T12:16:48;5.17;;;2.23;;
14104;SDS011;7130;52.484;4.766;2022-08-01T12:19:17;6.07;;;2.60;;
14104;SDS011;7130;52.484;4.766;2022-08-01T12:21:46;5.10;;;2.10;;
14104;SDS011;7130;52.484;4.766;2022-08-01T12:24:34;5.78;;;2.30;;
14104;SDS011;7130;52.484;4.766;2022-08-01T12:27:01;6.47;;;2.73;;
14104;SDS011;7130;52.484;4.766;2022-08-01T12:29:32;6.32;;;2.22;;
14104;SDS011;7130;52.484;4.766;2022-08-01T12:32:03;5.03;;;2.40;;
14104;SDS011;7130;52.484;4.766;2022-08-01T12:34:30;5.78;;;2.42;;
14104;SDS011;7130;52.484;4.766;2022-08-01T12:37:01;4.95;;;2.40;;
14104;SDS011;7130;52.484;4.766;2022-08-01T12:39:29;6.78;;;2.58;;
14104;SDS011;7130;52.484;4.766;2022-08-01T12:41:57;5.82;;;2.58;;
14104;SDS011;7130;52.484;4.766;2022-08-01T12:44:24;6.50;;;2.80;;
14104;SDS011;7130;52.484;4.766;2022-08-01T12:46:52;6.75;;;2.70;;
14104;SDS011;7130;52.484;4.766;2022-08-01T12:49:19;6.53;;;2.42;;
14104;SDS011;7130;52.484;4.766;2022-08-01T12:51:47;4.47;;;2.35;;
14104;SDS011;7130;52.484;4.766;2022-08-01T12:54:15;5.40;;;2.25;;
14104;SDS011;7130;52.484;4.766;2022-08-01T12:56:43;5.60;;;2.10;;
14104;SDS011;7130;52.484;4.766;2022-08-01T12:59:20;4.63;;;2.30;;
14104;SDS011;7130;52.484;4.766;2022-08-01T13:01:47;5.35;;;2.40;;
14104;SDS011;7130;52.484;4.766;2022-08-01T13:04:15;5.47;;;2.37;;
14104;SDS011;7130;52.484;4.766;2022-08-01T13:06:42;6.10;;;1.98;;
14104;SDS011;7130;52.484;4.766;2022-08-01T13:09:09;4.20;;;2.22;;
14104;SDS011;7130;52.484;4.766;2022-08-01T13:11:39;4.68;;;2.10;;
14104;SDS011;7130;52.484;4.766;2022-08-01T13:14:08;5.38;;;2.70;;
14104;SDS011;7130;52.484;4.766;2022-08-01T13:16:45;4.78;;;2.17;;
14104;SDS011;7130;52.484;4.766;2022-08-01T13:19:12;4.60;;;2.20;;
14104;SDS011;7130;52.484;4.766;2022-08-01T13:21:39;4.38;;;2.20;;
14104;SDS011;7130;52.484;4.766;2022-08-01T13:24:22;6.33;;;2.50;;
14104;SDS011;7130;52.484;4.766;2022-08-01T13:26:52;5.40;;;2.40;;
14104;SDS011;7130;52.484;4.766;2022-08-01T13:29:21;6.07;;;2.67;;
14104;SDS011;7130;52.484;4.766;2022-08-01T13:31:48;6.68;;;2.30;;
14104;SDS011;7130;52.484;4.766;2022-08-01T13:34:16;5.03;;;2.50;;
14104;SDS011;7130;52.484;4.766;2022-08-01T13:36:43;8.35;;;2.90;;
14104;SDS011;7130;52.484;4.766;2022-08-01T13:39:11;4.63;;;2.28;;
14104;SDS011;7130;52.484;4.766;2022-08-01T13:41:57;6.65;;;2.50;;
14104;SDS011;7130;52.484;4.766;2022-08-01T13:44:24;5.32;;;2.45;;
14104;SDS011;7130;52.484;4.766;2022-08-01T13:46:51;6.07;;;2.00;;
14104;SDS011;7130;52.484;4.766;2022-08-01T13:49:18;7.22;;;2.08;;
14104;SDS011;7130;52.484;4.766;2022-08-01T13:51:45;5.47;;;2.30;;
14104;SDS011;7130;52.484;4.766;2022-08-01T13:54:14;6.55;;;2.40;;
14104;SDS011;7130;52.484;4.766;2022-08-01T13:56:42;5.55;;;2.00;;
14104;SDS011;7130;52.484;4.766;2022-08-01T13:59:10;4.88;;;2.00;;
14104;SDS011;7130;52.484;4.766;2022-08-01T14:01:37;4.18;;;1.90;;
14104;SDS011;7130;52.484;4.766;2022-08-01T14:04:04;4.70;;;1.70;;
14104;SDS011;7130;52.484;4.766;2022-08-01T14:06:31;3.80;;;1.88;;
14104;SDS011;7130;52.484;4.766;2022-08-01T14:08:59;4.47;;;1.88;;
14104;SDS011;7130;52.484;4.766;2022-08-01T14:11:27;3.72;;;2.05;;
14104;SDS011;7130;52.484;4.766;2022-08-01T14:13:54;6.85;;;2.17;;
14104;SDS011;7130;52.484;4.766;2022-08-01T14:16:22;3.70;;;1.63;;
14104;SDS011;7130;52.484;4.766;2022-08-01T14:18:49;3.80;;;2.03;;
14104;SDS011;7130;52.484;4.766;2022-08-01T14:21:16;3.50;;;1.70;;
14104;SDS011;7130;52.484;4.766;2022-08-01T14:23:44;4.68;;;1.90;;
14104;SDS011;7130;52.484;4.766;2022-08-01T14:26:11;2.73;;;1.87;;
14104;SDS011;7130;52.484;4.766;2022-08-01T14:28:38;2.90;;;1.58;;
14104;SDS011;7130;52.484;4.766;2022-08-01T14:31:06;4.65;;;2.30;;
14104;SDS011;7130;52.484;4.766;2022-08-01T14:33:35;4.65;;;1.65;;
14104;SDS011;7130;52.484;4.766;2022-08-01T14:36:02;4.05;;;1.85;;
14104;SDS011;7130;52.484;4.766;2022-08-01T14:38:29;3.95;;;2.00;;
14104;SDS011;7130;52.484;4.766;2022-08-01T14:40:56;3.47;;;1.50;;
14104;SDS011;7130;52.484;4.766;2022-08-01T14:43:24;4.72;;;1.67;;
14104;SDS011;7130;52.484;4.766;2022-08-01T14:45:51;2.70;;;1.50;;
14104;SDS011;7130;52.484;4.766;2022-08-01T14:48:19;3.70;;;1.50;;
14104;SDS011;7130;52.484;4.766;2022-08-01T14:50:48;3.10;;;1.65;;
14104;SDS011;7130;52.484;4.766;2022-08-01T14:53:15;3.85;;;1.40;;
14104;SDS011;7130;52.484;4.766;2022-08-01T14:55:43;3.10;;;1.80;;
14104;SDS011;7130;52.484;4.766;2022-08-01T14:58:10;2.97;;;1.50;;
14104;SDS011;7130;52.484;4.766;2022-08-01T15:00:37;3.00;;;1.60;;
14104;SDS011;7130;52.484;4.766;2022-08-01T15:03:04;3.63;;;1.70;;
14104;SDS011;7130;52.484;4.766;2022-08-01T15:05:31;3.00;;;1.48;;
14104;SDS011;7130;52.484;4.766;2022-08-01T15:08:00;3.33;;;1.52;;
14104;SDS011;7130;52.484;4.766;2022-08-01T15:10:27;3.70;;;1.80;;
14104;SDS011;7130;52.484;4.766;2022-08-01T15:12:54;2.20;;;1.47;;